Time;durP1;ratioP1;P1;durP2;ratioP2;P2;SDS_P1;SDS_P2;PMS_P1;PMS_P2;Temp;Humidity;BMP_temperature;BMP_pressure;BME280_temperature;BME280_humidity;BME280_pressure;Samples;Min_cycle;Max_cycle;Signal;HPM_P1;HPM_P2
2024/01/01 00:00:55;;;;;;;8.35;1.83;;;;;;;;;;5045734;28;20056;-73
2024/01/01 00:03:21;;;;;;;10.55;2.03;;;;;;;;;;5065197;28;20040;-73
2024/01/01 00:05:46;;;;;;;6.82;1.38;;;;;;;;;;5068281;28;20063;-74
2024/01/01 00:08:12;;;;;;;12.43;2.95;;;;;;;;;;5062037;28;20067;-75
2024/01/01 00:10:37;;;;;;;14.25;1.88;;;;;;;;;;5057648;28;20033;-74
2024/01/01 00:13:03;;;;;;;9.52;2.10;;;;;;;;;;5043784;28;20037;-75
2024/01/01 00:15:28;;;;;;;12.20;1.45;;;;;;;;;;5044172;28;20674;-74
2024/01/01 00:17:54;;;;;;;7.35;2.33;;;;;;;;;;5061957;28;20078;-74
2024/01/01 00:20:20;;;;;;;13.07;1.90;;;;;;;;;;5042660;28;20471;-75
2024/01/01 00:22:47;;;;;;;4.82;1.15;;;;;;;;;;5042072;28;20658;-75
2024/01/01 00:25:12;;;;;;;7.53;1.75;;;;;;;;;;5061216;28;20647;-74
2024/01/01 00:27:38;;;;;;;6.30;1.40;;;;;;;;;;5041657;28;20021;-75
2024/01/01 00:30:03;;;;;;;8.57;1.33;;;;;;;;;;5061703;28;20028;-74
2024/01/01 00:32:29;;;;;;;7.15;1.77;;;;;;;;;;5061441;28;20103;-75
2024/01/01 00:34:54;;;;;;;4.75;1.00;;;;;;;;;;5062059;28;20032;-75
2024/01/01 00:37:20;;;;;;;7.72;1.70;;;;;;;;;;5040515;28;20049;-75
2024/01/01 00:39:45;;;;;;;12.27;1.67;;;;;;;;;;5041710;28;20040;-74
2024/01/01 00:42:11;;;;;;;5.03;1.15;;;;;;;;;;5040587;28;20444;-74
2024/01/01 00:44:38;;;;;;;8.57;1.27;;;;;;;;;;5041028;28;20572;-74
2024/01/01 00:47:03;;;;;;;7.20;1.30;;;;;;;;;;5041977;28;20032;-74
2024/01/01 00:49:28;;;;;;;6.78;1.38;;;;;;;;;;5040967;28;20063;-74
2024/01/01 00:51:55;;;;;;;8.50;1.60;;;;;;;;;;5041741;28;20087;-73
2024/01/01 00:54:20;;;;;;;8.43;1.52;;;;;;;;;;5042067;28;20815;-73
2024/01/01 00:56:46;;;;;;;7.57;1.42;;;;;;;;;;5040688;28;20033;-73
2024/01/01 00:59:12;;;;;;;11.10;1.77;;;;;;;;;;5040640;28;20506;-74
2024/01/01 01:01:37;;;;;;;8.90;1.50;;;;;;;;;;5041745;28;20214;-74
2024/01/01 01:04:03;;;;;;;12.80;1.60;;;;;;;;;;5041695;28;20025;-74
2024/01/01 01:06:29;;;;;;;5.68;1.35;;;;;;;;;;5040672;28;20029;-74
2024/01/01 01:08:54;;;;;;;6.95;1.42;;;;;;;;;;5041920;28;20028;-74
2024/01/01 01:11:19;;;;;;;10.20;1.58;;;;;;;;;;5042124;28;20591;-74
2024/01/01 01:13:45;;;;;;;4.28;1.20;;;;;;;;;;5040245;28;20037;-74
2024/01/01 01:16:10;;;;;;;11.50;1.40;;;;;;;;;;5043214;28;20044;-74
2024/01/01 01:18:36;;;;;;;16.35;1.98;;;;;;;;;;5046322;28;20025;-74
2024/01/01 01:21:01;;;;;;;5.95;1.15;;;;;;;;;;5047138;28;20737;-74
2024/01/01 01:23:28;;;;;;;5.78;1.40;;;;;;;;;;5051048;28;20041;-74
2024/01/01 01:25:53;;;;;;;6.03;1.48;;;;;;;;;;5055008;28;20127;-74
2024/01/01 01:28:23;;;;;;;4.45;1.02;;;;;;;;;;5047675;28;20238;-74
2024/01/01 01:30:48;;;;;;;9.00;1.90;;;;;;;;;;5046857;28;20459;-74
2024/01/01 01:33:13;;;;;;;9.32;1.85;;;;;;;;;;5045028;28;20512;-74
2024/01/01 01:35:39;;;;;;;4.43;1.27;;;;;;;;;;5042944;28;20080;-74
2024/01/01 01:38:04;;;;;;;8.77;1.35;;;;;;;;;;5043580;28;20110;-73
2024/01/01 01:40:29;;;;;;;4.70;1.33;;;;;;;;;;5045324;28;20121;-74
2024/01/01 01:42:55;;;;;;;6.80;1.70;;;;;;;;;;5043822;28;20025;-75
2024/01/01 01:45:20;;;;;;;8.07;1.23;;;;;;;;;;5045340;28;20025;-74
2024/01/01 01:47:46;;;;;;;11.95;1.77;;;;;;;;;;5044880;28;20049;-74
2024/01/01 01:50:12;;;;;;;8.98;1.20;;;;;;;;;;5045028;28;20033;-74
2024/01/01 01:52:38;;;;;;;2.40;0.90;;;;;;;;;;5045041;28;20044;-74
2024/01/01 01:55:05;;;;;;;5.63;1.35;;;;;;;;;;5041230;28;20040;-74
2024/01/01 01:57:32;;;;;;;6.38;1.75;;;;;;;;;;5044962;28;20029;-74
2024/01/01 01:59:58;;;;;;;5.07;1.23;;;;;;;;;;5044708;28;20078;-74
2024/01/01 02:02:26;;;;;;;4.68;1.35;;;;;;;;;;5044222;28;20838;-74
2024/01/01 02:04:52;;;;;;;10.30;1.35;;;;;;;;;;5044630;28;20029;-74
2024/01/01 02:07:17;;;;;;;7.85;1.95;;;;;;;;;;5043846;28;20098;-74
2024/01/01 02:09:43;;;;;;;5.35;0.98;;;;;;;;;;5044678;28;20033;-74
2024/01/01 02:12:08;;;;;;;6.78;1.42;;;;;;;;;;5044575;28;20021;-74
2024/01/01 02:14:34;;;;;;;6.85;1.10;;;;;;;;;;5042892;28;20112;-74
2024/01/01 02:16:59;;;;;;;6.75;1.20;;;;;;;;;;5043957;28;20033;-75
2024/01/01 02:19:26;;;;;;;3.58;1.13;;;;;;;;;;5044708;28;20033;-75
2024/01/01 02:21:53;;;;;;;6.80;1.25;;;;;;;;;;5043954;28;20452;-75
2024/01/01 02:24:20;;;;;;;11.18;2.35;;;;;;;;;;5044724;28;20025;-75
2024/01/01 02:26:46;;;;;;;16.75;1.92;;;;;;;;;;5043480;28;20033;-74
2024/01/01 02:29:12;;;;;;;7.65;1.20;;;;;;;;;;5042465;28;20033;-75
2024/01/01 02:31:37;;;;;;;13.25;1.92;;;;;;;;;;5044090;28;20047;-75
2024/01/01 02:34:03;;;;;;;8.23;1.67;;;;;;;;;;5043039;28;20033;-75
2024/01/01 02:36:33;;;;;;;3.20;0.90;;;;;;;;;;5044523;28;20024;-74
2024/01/01 02:38:59;;;;;;;10.88;1.90;;;;;;;;;;5043495;28;20106;-75
2024/01/01 02:41:24;;;;;;;6.90;2.00;;;;;;;;;;5045965;28;20040;-75
2024/01/01 02:43:49;;;;;;;8.88;1.88;;;;;;;;;;5053094;28;20029;-75
2024/01/01 02:46:15;;;;;;;8.82;2.28;;;;;;;;;;5044822;28;20032;-75
2024/01/01 02:48:40;;;;;;;5.78;1.15;;;;;;;;;;5043972;28;20546;-75
2024/01/01 02:51:05;;;;;;;9.75;1.50;;;;;;;;;;5041298;28;20566;-74
2024/01/01 02:53:32;;;;;;;4.50;1.00;;;;;;;;;;5041988;28;20075;-75
2024/01/01 02:55:58;;;;;;;7.20;1.38;;;;;;;;;;5044119;28;20041;-75
2024/01/01 02:58:23;;;;;;;9.70;1.27;;;;;;;;;;5042665;28;20636;-75
2024/01/01 03:00:48;;;;;;;9.93;1.70;;;;;;;;;;5043637;28;20044;-74
2024/01/01 03:03:14;;;;;;;4.72;1.17;;;;;;;;;;5041862;28;20032;-75
2024/01/01 03:05:40;;;;;;;10.95;1.95;;;;;;;;;;5042311;28;20469;-75
2024/01/01 03:08:07;;;;;;;10.65;1.50;;;;;;;;;;5029709;28;20128;-74
2024/01/01 03:10:32;;;;;;;12.35;1.30;;;;;;;;;;5023522;28;20060;-75
2024/01/01 03:12:58;;;;;;;8.60;1.42;;;;;;;;;;5023164;28;20517;-75
2024/01/01 03:15:23;;;;;;;5.80;1.10;;;;;;;;;;5023267;28;20072;-75
2024/01/01 03:17:48;;;;;;;10.07;1.30;;;;;;;;;;5023818;28;20087;-75
2024/01/01 03:20:14;;;;;;;12.88;1.48;;;;;;;;;;5030430;28;20041;-75
2024/01/01 03:22:39;;;;;;;10.88;1.63;;;;;;;;;;5043153;28;20536;-75
2024/01/01 03:25:05;;;;;;;6.60;1.40;;;;;;;;;;5041849;28;20118;-75
2024/01/01 03:27:30;;;;;;;9.25;1.60;;;;;;;;;;5042046;28;20032;-75
2024/01/01 03:29:56;;;;;;;10.48;2.13;;;;;;;;;;5043610;28;20043;-75
2024/01/01 03:32:21;;;;;;;9.23;1.05;;;;;;;;;;5042767;28;20037;-74
2024/01/01 03:34:47;;;;;;;8.15;1.40;;;;;;;;;;5040574;28;20088;-74
2024/01/01 03:37:12;;;;;;;2.92;0.82;;;;;;;;;;5046914;28;20056;-75
2024/01/01 03:39:37;;;;;;;6.65;1.60;;;;;;;;;;5062081;28;20116;-74
2024/01/01 03:42:03;;;;;;;3.72;1.17;;;;;;;;;;5043885;28;20067;-74
2024/01/01 03:44:28;;;;;;;9.85;1.40;;;;;;;;;;5062047;28;20047;-74
2024/01/01 03:46:54;;;;;;;7.15;1.50;;;;;;;;;;5062895;28;20131;-75
2024/01/01 03:49:19;;;;;;;6.90;1.20;;;;;;;;;;5062842;28;20044;-74
2024/01/01 03:51:45;;;;;;;5.78;1.58;;;;;;;;;;5044664;28;20036;-75
2024/01/01 03:54:10;;;;;;;5.78;1.52;;;;;;;;;;5063001;28;20611;-75
2024/01/01 03:56:35;;;;;;;9.65;1.23;;;;;;;;;;5062976;28;20033;-74
2024/01/01 03:59:01;;;;;;;6.88;1.02;;;;;;;;;;5065124;28;20044;-74
2024/01/01 04:01:26;;;;;;;7.88;1.35;;;;;;;;;;5050856;28;20040;-74
2024/01/01 04:03:55;;;;;;;7.00;2.00;;;;;;;;;;5069115;28;20032;-74
2024/01/01 04:06:20;;;;;;;9.90;1.40;;;;;;;;;;5068044;28;20032;-74
2024/01/01 04:08:46;;;;;;;12.43;1.67;;;;;;;;;;5046556;28;20044;-74
2024/01/01 04:11:11;;;;;;;5.00;1.40;;;;;;;;;;5063416;28;20036;-73
2024/01/01 04:13:36;;;;;;;8.32;1.67;;;;;;;;;;5062691;28;20063;-73
2024/01/01 04:16:02;;;;;;;5.47;0.98;;;;;;;;;;5062304;28;20060;-75
2024/01/01 04:18:27;;;;;;;3.78;1.10;;;;;;;;;;5062376;28;20035;-74
2024/01/01 04:20:53;;;;;;;6.90;1.52;;;;;;;;;;5062527;28;20029;-74
2024/01/01 04:23:19;;;;;;;8.95;1.45;;;;;;;;;;5061857;28;20067;-74
2024/01/01 04:25:44;;;;;;;7.82;1.27;;;;;;;;;;5043949;28;20123;-74
2024/01/01 04:28:09;;;;;;;13.82;2.10;;;;;;;;;;5061134;28;20039;-74
2024/01/01 04:30:35;;;;;;;10.52;2.28;;;;;;;;;;5044225;28;20036;-75
2024/01/01 04:33:00;;;;;;;10.23;1.48;;;;;;;;;;5044595;28;20485;-74
2024/01/01 04:35:25;;;;;;;7.43;1.48;;;;;;;;;;5061315;28;20066;-74
2024/01/01 04:37:51;;;;;;;7.70;1.50;;;;;;;;;;5040499;28;20056;-74
2024/01/01 04:40:16;;;;;;;11.73;1.35;;;;;;;;;;5040694;28;20037;-74
2024/01/01 04:42:42;;;;;;;11.63;1.50;;;;;;;;;;5040205;28;20102;-73
2024/01/01 04:45:08;;;;;;;9.73;1.38;;;;;;;;;;5040310;28;20474;-73
2024/01/01 04:47:34;;;;;;;10.73;1.95;;;;;;;;;;5042016;28;20044;-74
2024/01/01 04:49:59;;;;;;;10.00;1.85;;;;;;;;;;5040750;28;20041;-73
2024/01/01 04:52:24;;;;;;;12.52;1.77;;;;;;;;;;5044121;28;20045;-73
2024/01/01 04:54:54;;;;;;;8.82;2.10;;;;;;;;;;5046265;28;20156;-73
2024/01/01 04:57:19;;;;;;;10.73;1.52;;;;;;;;;;5046108;28;20021;-74
2024/01/01 04:59:45;;;;;;;5.80;1.83;;;;;;;;;;5044551;28;20048;-74
2024/01/01 05:02:10;;;;;;;7.07;1.27;;;;;;;;;;5045465;28;20037;-74
2024/01/01 05:04:35;;;;;;;8.20;1.27;;;;;;;;;;5045352;28;20467;-74
2024/01/01 05:07:01;;;;;;;7.05;1.48;;;;;;;;;;5045464;28;20033;-74
2024/01/01 05:09:26;;;;;;;7.55;1.25;;;;;;;;;;5045838;28;20108;-75
2024/01/01 05:11:51;;;;;;;10.20;1.73;;;;;;;;;;5046649;28;20447;-74
2024/01/01 05:14:17;;;;;;;9.30;1.25;;;;;;;;;;5045591;28;20048;-75
2024/01/01 05:16:47;;;;;;;10.05;1.40;;;;;;;;;;5044735;28;20043;-74
2024/01/01 05:19:12;;;;;;;8.68;1.90;;;;;;;;;;5046473;28;20532;-75
2024/01/01 05:21:38;;;;;;;7.07;1.27;;;;;;;;;;5055188;28;20056;-74
2024/01/01 05:24:03;;;;;;;7.25;1.77;;;;;;;;;;5046628;28;20624;-74
2024/01/01 05:26:28;;;;;;;6.10;1.38;;;;;;;;;;5045780;28;20033;-75
2024/01/01 05:28:54;;;;;;;8.95;1.75;;;;;;;;;;5044228;28;20052;-75
2024/01/01 05:31:22;;;;;;;5.55;1.33;;;;;;;;;;5045495;28;20055;-75
2024/01/01 05:33:48;;;;;;;5.30;1.35;;;;;;;;;;5043934;28;20052;-76
2024/01/01 05:36:13;;;;;;;4.85;0.90;;;;;;;;;;5043313;28;20021;-75
2024/01/01 05:38:39;;;;;;;8.98;1.38;;;;;;;;;;5043013;28;20063;-75
2024/01/01 05:41:05;;;;;;;8.27;1.52;;;;;;;;;;5045179;28;20510;-75
2024/01/01 05:43:31;;;;;;;10.18;1.33;;;;;;;;;;5043869;28;20850;-75
2024/01/01 05:45:57;;;;;;;8.23;1.58;;;;;;;;;;5045361;28;20037;-75
2024/01/01 05:48:22;;;;;;;7.13;1.33;;;;;;;;;;5032723;28;20079;-75
2024/01/01 05:50:48;;;;;;;10.15;1.45;;;;;;;;;;5043328;28;20025;-75
2024/01/01 05:53:13;;;;;;;7.85;1.63;;;;;;;;;;5044424;28;20044;-75
2024/01/01 05:55:39;;;;;;;8.68;1.48;;;;;;;;;;5044424;28;20636;-76
2024/01/01 05:58:04;;;;;;;6.35;1.25;;;;;;;;;;5044644;28;20111;-74
2024/01/01 06:00:30;;;;;;;8.93;1.30;;;;;;;;;;5044394;28;20029;-75
2024/01/01 06:02:55;;;;;;;7.97;1.63;;;;;;;;;;5045543;28;20036;-74
2024/01/01 06:05:20;;;;;;;9.18;1.23;;;;;;;;;;5044458;28;20037;-74
2024/01/01 06:07:46;;;;;;;10.52;1.35;;;;;;;;;;5044395;28;20045;-73
2024/01/01 06:10:11;;;;;;;8.82;1.65;;;;;;;;;;5042554;28;20025;-74
2024/01/01 06:12:37;;;;;;;7.03;1.52;;;;;;;;;;5044087;28;20032;-74
2024/01/01 06:15:03;;;;;;;4.15;1.05;;;;;;;;;;5044806;28;20032;-74
2024/01/01 06:17:28;;;;;;;8.55;1.17;;;;;;;;;;5042589;28;20117;-74
2024/01/01 06:19:56;;;;;;;12.20;2.10;;;;;;;;;;5044579;28;20614;-74
2024/01/01 06:22:21;;;;;;;7.25;1.30;;;;;;;;;;5043376;28;20421;-74
2024/01/01 06:24:46;;;;;;;7.97;1.60;;;;;;;;;;5042466;28;20036;-74
2024/01/01 06:27:12;;;;;;;7.20;1.85;;;;;;;;;;5043311;28;20171;-74
2024/01/01 06:29:38;;;;;;;7.30;1.67;;;;;;;;;;5042563;28;20060;-74
2024/01/01 06:32:03;;;;;;;6.45;1.60;;;;;;;;;;5042848;28;20537;-74
2024/01/01 06:34:29;;;;;;;8.50;2.00;;;;;;;;;;5043164;28;20450;-75
2024/01/01 06:36:54;;;;;;;4.47;0.80;;;;;;;;;;5045360;28;20037;-74
2024/01/01 06:39:20;;;;;;;12.20;1.70;;;;;;;;;;5052048;28;20036;-74
2024/01/01 06:41:45;;;;;;;9.00;1.98;;;;;;;;;;5055615;28;20032;-74
2024/01/01 06:44:10;;;;;;;9.38;1.23;;;;;;;;;;5068806;28;20037;-75
2024/01/01 06:46:36;;;;;;;9.35;1.25;;;;;;;;;;5065063;28;20043;-74
2024/01/01 06:49:01;;;;;;;5.70;1.70;;;;;;;;;;5064553;28;20507;-75
2024/01/01 06:51:27;;;;;;;4.03;0.93;;;;;;;;;;5046003;28;20021;-74
2024/01/01 06:53:52;;;;;;;9.05;1.23;;;;;;;;;;5063889;28;20027;-75
2024/01/01 06:56:17;;;;;;;8.27;1.75;;;;;;;;;;5063914;28;20040;-75
2024/01/01 06:58:43;;;;;;;8.35;1.55;;;;;;;;;;5063880;28;20029;-75
2024/01/01 07:01:08;;;;;;;11.27;1.85;;;;;;;;;;5045453;28;20155;-75
2024/01/01 07:03:34;;;;;;;6.32;1.27;;;;;;;;;;5045484;28;20139;-75
2024/01/01 07:05:59;;;;;;;7.05;1.33;;;;;;;;;;5063921;28;20020;-75
2024/01/01 07:08:24;;;;;;;10.48;1.50;;;;;;;;;;5063463;28;20032;-75
2024/01/01 07:10:50;;;;;;;10.32;1.65;;;;;;;;;;5063140;28;20131;-75
2024/01/01 07:13:15;;;;;;;8.55;1.40;;;;;;;;;;5062016;28;20636;-75
2024/01/01 07:15:42;;;;;;;10.90;1.55;;;;;;;;;;5062916;28;20020;-75
2024/01/01 07:18:07;;;;;;;10.98;1.27;;;;;;;;;;5063817;28;20024;-75
2024/01/01 07:20:33;;;;;;;5.90;1.33;;;;;;;;;;5061074;28;20414;-75
2024/01/01 07:22:58;;;;;;;6.20;1.08;;;;;;;;;;5063734;28;20115;-74
2024/01/01 07:25:24;;;;;;;5.72;1.13;;;;;;;;;;5062850;28;20675;-75
2024/01/01 07:27:50;;;;;;;8.50;1.42;;;;;;;;;;5043970;28;20033;-75
2024/01/01 07:30:15;;;;;;;8.20;1.50;;;;;;;;;;5063674;28;20608;-75
2024/01/01 07:32:41;;;;;;;5.85;0.95;;;;;;;;;;5062496;28;20079;-76
2024/01/01 07:35:08;;;;;;;5.05;1.15;;;;;;;;;;5058626;28;20033;-77
2024/01/01 07:37:34;;;;;;;13.30;1.35;;;;;;;;;;5043040;28;20133;-76
2024/01/01 07:39:59;;;;;;;12.93;1.48;;;;;;;;;;5044733;28;20025;-77
2024/01/01 07:42:26;;;;;;;6.40;1.20;;;;;;;;;;5041097;28;20029;-77
2024/01/01 07:44:52;;;;;;;15.77;1.35;;;;;;;;;;5044578;28;20328;-76
2024/01/01 07:47:19;;;;;;;7.18;1.60;;;;;;;;;;5043118;28;20116;-77
2024/01/01 07:49:45;;;;;;;8.07;1.65;;;;;;;;;;5041328;28;20036;-76
2024/01/01 07:52:11;;;;;;;9.55;1.95;;;;;;;;;;5044429;28;20508;-76
2024/01/01 07:54:38;;;;;;;6.35;1.20;;;;;;;;;;5044378;28;20121;-77
2024/01/01 07:57:04;;;;;;;9.63;1.60;;;;;;;;;;5048565;28;20770;-74
2024/01/01 07:59:29;;;;;;;12.65;1.75;;;;;;;;;;5054655;28;20037;-76
2024/01/01 08:01:55;;;;;;;10.63;1.55;;;;;;;;;;5043452;28;20056;-76
2024/01/01 08:04:20;;;;;;;14.80;1.83;;;;;;;;;;5040518;28;20037;-76
2024/01/01 08:06:45;;;;;;;9.18;1.38;;;;;;;;;;5043280;28;20497;-76
2024/01/01 08:09:11;;;;;;;6.78;1.20;;;;;;;;;;5042112;28;20040;-76
2024/01/01 08:11:36;;;;;;;6.07;1.30;;;;;;;;;;5042319;28;20476;-76
2024/01/01 08:14:02;;;;;;;10.05;1.45;;;;;;;;;;5042635;28;20064;-76
2024/01/01 08:16:27;;;;;;;6.63;1.10;;;;;;;;;;5043406;28;20041;-73
2024/01/01 08:18:56;;;;;;;8.80;2.00;;;;;;;;;;5041709;28;20106;-73
2024/01/01 08:21:22;;;;;;;4.03;1.00;;;;;;;;;;5043201;28;20029;-74
2024/01/01 08:23:48;;;;;;;3.72;1.00;;;;;;;;;;5042366;28;20095;-74
2024/01/01 08:26:13;;;;;;;3.92;1.40;;;;;;;;;;5042253;28;20433;-74
2024/01/01 08:28:38;;;;;;;5.20;0.85;;;;;;;;;;5037619;28;20051;-74
2024/01/01 08:31:04;;;;;;;5.53;1.00;;;;;;;;;;5043860;28;20040;-74
2024/01/01 08:33:29;;;;;;;7.93;1.50;;;;;;;;;;5046296;28;20083;-74
2024/01/01 08:35:56;;;;;;;8.48;1.17;;;;;;;;;;5047830;28;20033;-74
2024/01/01 08:38:22;;;;;;;6.03;1.90;;;;;;;;;;5044226;28;20191;-74
2024/01/01 08:40:47;;;;;;;8.18;1.20;;;;;;;;;;5045629;28;20127;-74
2024/01/01 08:43:13;;;;;;;2.30;0.88;;;;;;;;;;5046079;28;20136;-74
2024/01/01 08:45:39;;;;;;;6.82;1.20;;;;;;;;;;5045064;28;20390;-74
2024/01/01 08:48:04;;;;;;;6.85;1.65;;;;;;;;;;5038001;28;20999;-74
2024/01/01 08:50:30;;;;;;;12.30;1.63;;;;;;;;;;5037165;28;20080;-74
2024/01/01 08:52:55;;;;;;;12.85;1.73;;;;;;;;;;5039181;28;20076;-74
2024/01/01 08:55:21;;;;;;;9.40;1.60;;;;;;;;;;5038050;28;20037;-74
2024/01/01 08:57:46;;;;;;;9.02;1.70;;;;;;;;;;5040697;28;20060;-75
2024/01/01 09:00:12;;;;;;;5.32;1.75;;;;;;;;;;5039964;28;20040;-74
2024/01/01 09:02:37;;;;;;;12.77;2.38;;;;;;;;;;5038351;28;20048;-74
2024/01/01 09:05:03;;;;;;;13.82;1.80;;;;;;;;;;5041891;28;20207;-74
2024/01/01 09:07:28;;;;;;;7.60;1.25;;;;;;;;;;5044540;28;20056;-74
2024/01/01 09:09:54;;;;;;;7.47;1.73;;;;;;;;;;5046642;28;20077;-74
2024/01/01 09:12:19;;;;;;;10.45;1.83;;;;;;;;;;5047659;28;20040;-74
2024/01/01 09:14:45;;;;;;;10.55;2.05;;;;;;;;;;5046063;28;20045;-75
2024/01/01 09:17:10;;;;;;;11.30;2.65;;;;;;;;;;5049788;28;20045;-75
2024/01/01 09:19:40;;;;;;;12.35;2.42;;;;;;;;;;5055277;28;20040;-74
2024/01/01 09:22:05;;;;;;;11.98;2.47;;;;;;;;;;5049813;28;20391;-74
2024/01/01 09:24:31;;;;;;;11.02;1.90;;;;;;;;;;5046593;28;20499;-74
2024/01/01 09:26:56;;;;;;;11.35;1.73;;;;;;;;;;5044011;28;20040;-74
2024/01/01 09:29:23;;;;;;;15.27;2.80;;;;;;;;;;5043737;28;20033;-74
2024/01/01 09:31:49;;;;;;;17.15;2.72;;;;;;;;;;5040241;28;20032;-74
2024/01/01 09:34:14;;;;;;;15.77;2.67;;;;;;;;;;5041801;28;20069;-73
2024/01/01 09:36:41;;;;;;;11.30;1.80;;;;;;;;;;5038522;28;20032;-74
2024/01/01 09:39:07;;;;;;;18.38;2.95;;;;;;;;;;5063792;28;20040;-74
2024/01/01 09:41:32;;;;;;;14.13;2.40;;;;;;;;;;5065050;28;20047;-74
2024/01/01 09:43:58;;;;;;;20.00;3.08;;;;;;;;;;5061834;28;20049;-74
2024/01/01 09:46:26;;;;;;;23.60;2.65;;;;;;;;;;5064306;28;20610;-74
2024/01/01 09:48:51;;;;;;;28.40;3.58;;;;;;;;;;5057746;28;20533;-74
2024/01/01 09:51:17;;;;;;;14.77;2.60;;;;;;;;;;5043954;28;20043;-74
2024/01/01 09:53:46;;;;;;;17.45;2.63;;;;;;;;;;5042419;28;20068;-74
2024/01/01 09:56:11;;;;;;;13.23;2.50;;;;;;;;;;5045686;28;20052;-74
2024/01/01 09:58:44;;;;;;;12.13;2.08;;;;;;;;;;5063983;28;20043;-73
2024/01/01 10:01:15;;;;;;;15.07;1.95;;;;;;;;;;5045751;28;20467;-74
2024/01/01 10:03:41;;;;;;;16.75;2.38;;;;;;;;;;5063483;28;20043;-73
2024/01/01 10:06:08;;;;;;;12.05;2.30;;;;;;;;;;5046278;28;20028;-74
2024/01/01 10:08:34;;;;;;;23.00;3.38;;;;;;;;;;5063234;28;20056;-74
2024/01/01 10:11:16;;;;;;;20.10;2.97;;;;;;;;;;5064067;28;20040;-73
2024/01/01 10:13:41;;;;;;;16.63;2.35;;;;;;;;;;5063645;28;20067;-74
2024/01/01 10:16:07;;;;;;;9.27;1.70;;;;;;;;;;5063485;28;20048;-73
2024/01/01 10:18:33;;;;;;;11.30;1.92;;;;;;;;;;5063758;28;20115;-73
2024/01/01 10:21:10;;;;;;;13.85;2.47;;;;;;;;;;5063903;28;20032;-74
2024/01/01 10:23:35;;;;;;;10.63;2.10;;;;;;;;;;5063397;28;20028;-74
2024/01/01 10:26:09;;;;;;;14.68;2.00;;;;;;;;;;5062522;28;20075;-74
2024/01/01 10:28:35;;;;;;;12.23;2.03;;;;;;;;;;5063421;28;20059;-75
2024/01/01 10:31:01;;;;;;;20.35;2.45;;;;;;;;;;5063674;28;20032;-75
2024/01/01 10:33:29;;;;;;;11.90;2.20;;;;;;;;;;5065302;28;20067;-75
2024/01/01 10:35:56;;;;;;;12.63;2.30;;;;;;;;;;5069879;28;20020;-75
2024/01/01 10:38:23;;;;;;;9.00;1.92;;;;;;;;;;5068166;28;20432;-75
2024/01/01 10:40:49;;;;;;;8.98;1.90;;;;;;;;;;5044409;28;20040;-73
2024/01/01 10:43:18;;;;;;;10.00;2.28;;;;;;;;;;5062436;28;20041;-73
2024/01/01 10:45:44;;;;;;;10.15;2.67;;;;;;;;;;5062956;28;20036;-73
2024/01/01 10:48:14;;;;;;;16.95;2.65;;;;;;;;;;5061958;28;20036;-74
2024/01/01 10:50:48;;;;;;;11.02;1.83;;;;;;;;;;5062103;28;20508;-73
2024/01/01 10:53:37;;;;;;;14.35;1.88;;;;;;;;;;5063132;28;20040;-73
2024/01/01 10:56:10;;;;;;;5.03;1.45;;;;;;;;;;5063115;28;20468;-73
2024/01/01 10:59:02;;;;;;;6.55;1.85;;;;;;;;;;5062053;28;20102;-73
2024/01/01 11:01:28;;;;;;;13.95;2.35;;;;;;;;;;5044588;28;20558;-73
2024/01/01 11:03:54;;;;;;;7.40;2.13;;;;;;;;;;5060891;28;20056;-73
2024/01/01 11:06:29;;;;;;;12.43;1.63;;;;;;;;;;5044310;28;20056;-73
2024/01/01 11:08:55;;;;;;;10.20;2.97;;;;;;;;;;5060739;28;20629;-73
2024/01/01 11:11:35;;;;;;;13.82;1.77;;;;;;;;;;5044539;28;20037;-74
2024/01/01 11:14:00;;;;;;;8.23;1.73;;;;;;;;;;5061254;28;20147;-73
2024/01/01 11:16:50;;;;;;;9.07;2.08;;;;;;;;;;5061401;28;20123;-73
2024/01/01 11:19:36;;;;;;;10.95;1.83;;;;;;;;;;5044560;28;20517;-74
2024/01/01 11:22:19;;;;;;;16.83;3.28;;;;;;;;;;5053567;28;20049;-74
2024/01/01 11:24:50;;;;;;;10.88;2.20;;;;;;;;;;5056047;28;20528;-74
2024/01/01 11:27:47;;;;;;;12.15;2.58;;;;;;;;;;5044967;28;20055;-74
2024/01/01 11:30:14;;;;;;;11.93;2.20;;;;;;;;;;5042593;28;20044;-74
2024/01/01 11:32:40;;;;;;;9.68;1.58;;;;;;;;;;5043029;28;20052;-74
2024/01/01 11:35:07;;;;;;;12.38;2.63;;;;;;;;;;5043249;28;20037;-74
2024/01/01 11:37:35;;;;;;;19.55;2.83;;;;;;;;;;5042835;28;20057;-74
2024/01/01 11:40:02;;;;;;;8.82;1.70;;;;;;;;;;5043119;28;20153;-74
2024/01/01 11:42:28;;;;;;;17.52;2.75;;;;;;;;;;5041736;28;20025;-75
2024/01/01 11:45:11;;;;;;;11.07;2.25;;;;;;;;;;5060468;28;20036;-74
2024/01/01 11:47:37;;;;;;;9.07;1.75;;;;;;;;;;5061005;28;20067;-74
2024/01/01 11:50:05;;;;;;;7.88;1.73;;;;;;;;;;5042409;28;20040;-75
2024/01/01 11:52:30;;;;;;;9.63;1.90;;;;;;;;;;5060294;28;20040;-74
2024/01/01 11:54:56;;;;;;;12.13;2.10;;;;;;;;;;5042171;28;20032;-75
2024/01/01 11:57:21;;;;;;;9.30;1.73;;;;;;;;;;5061083;28;20546;-73
2024/01/01 11:59:49;;;;;;;10.27;1.75;;;;;;;;;;5041850;28;20425;-74
2024/01/01 12:02:16;;;;;;;9.20;1.92;;;;;;;;;;5039957;28;20036;-74
2024/01/01 12:04:41;;;;;;;10.05;2.00;;;;;;;;;;5043083;28;20089;-75
2024/01/01 12:07:07;;;;;;;8.20;1.70;;;;;;;;;;5060216;28;20033;-75
2024/01/01 12:09:32;;;;;;;14.10;2.65;;;;;;;;;;5043773;28;20146;-74
2024/01/01 12:12:03;;;;;;;17.45;3.08;;;;;;;;;;5026168;28;20094;-74
2024/01/01 12:14:29;;;;;;;5.50;1.45;;;;;;;;;;5023130;28;20211;-74
2024/01/01 12:16:54;;;;;;;11.82;2.58;;;;;;;;;;5040628;28;20063;-74
2024/01/01 12:19:23;;;;;;;8.35;1.65;;;;;;;;;;5041494;28;20041;-74
2024/01/01 12:21:49;;;;;;;9.88;1.88;;;;;;;;;;5040899;28;20029;-74
2024/01/01 12:24:22;;;;;;;6.55;1.50;;;;;;;;;;5080351;28;20047;-74
2024/01/01 12:26:50;;;;;;;13.98;2.67;;;;;;;;;;5081674;28;20097;-73
2024/01/01 12:29:15;;;;;;;12.73;2.10;;;;;;;;;;5062281;28;20111;-74
2024/01/01 12:31:43;;;;;;;9.30;1.55;;;;;;;;;;5081134;28;20543;-74
2024/01/01 12:34:12;;;;;;;14.60;2.55;;;;;;;;;;5062475;28;20030;-74
2024/01/01 12:36:38;;;;;;;8.77;2.00;;;;;;;;;;5077567;28;20050;-74
2024/01/01 12:39:04;;;;;;;16.20;2.13;;;;;;;;;;5046022;28;20047;-74
2024/01/01 12:41:30;;;;;;;9.15;1.85;;;;;;;;;;5036932;28;20676;-74
2024/01/01 12:43:58;;;;;;;14.57;2.03;;;;;;;;;;5050888;28;20035;-74
2024/01/01 12:46:24;;;;;;;11.75;2.00;;;;;;;;;;5053027;28;20099;-74
2024/01/01 12:48:50;;;;;;;10.82;2.20;;;;;;;;;;5039284;28;20600;-74
2024/01/01 12:51:17;;;;;;;10.80;2.50;;;;;;;;;;5061683;28;20024;-74
2024/01/01 12:53:43;;;;;;;11.60;2.25;;;;;;;;;;5063388;28;20048;-74
2024/01/01 12:56:09;;;;;;;7.57;2.10;;;;;;;;;;5069618;28;20692;-74
2024/01/01 12:58:34;;;;;;;9.73;2.85;;;;;;;;;;5045768;28;20124;-74
2024/01/01 13:01:00;;;;;;;10.98;1.90;;;;;;;;;;5059930;28;20036;-74
2024/01/01 13:03:26;;;;;;;8.93;1.85;;;;;;;;;;5059770;28;20032;-75
2024/01/01 13:05:51;;;;;;;12.57;2.05;;;;;;;;;;5042186;28;20027;-74
2024/01/01 13:08:16;;;;;;;13.40;2.30;;;;;;;;;;5041743;28;20459;-75
2024/01/01 13:10:42;;;;;;;12.18;2.20;;;;;;;;;;5060175;28;20036;-75
2024/01/01 13:13:07;;;;;;;13.77;2.33;;;;;;;;;;5044618;28;20032;-75
2024/01/01 13:15:38;;;;;;;6.07;1.70;;;;;;;;;;5045481;28;20029;-74
2024/01/01 13:18:03;;;;;;;15.02;2.10;;;;;;;;;;5045814;28;20032;-75
2024/01/01 13:20:29;;;;;;;11.57;1.95;;;;;;;;;;5063502;28;20086;-75
2024/01/01 13:22:57;;;;;;;8.98;1.48;;;;;;;;;;5063448;28;20055;-74
2024/01/01 13:25:22;;;;;;;10.57;2.33;;;;;;;;;;5063639;28;20025;-74
2024/01/01 13:27:48;;;;;;;5.63;1.55;;;;;;;;;;5063237;28;20040;-74
2024/01/01 13:30:15;;;;;;;10.60;2.13;;;;;;;;;;5063575;28;20028;-75
2024/01/01 13:32:40;;;;;;;9.38;1.70;;;;;;;;;;5062907;28;20047;-75
2024/01/01 13:35:06;;;;;;;12.55;1.90;;;;;;;;;;5045252;28;20033;-75
2024/01/01 13:37:31;;;;;;;11.80;2.80;;;;;;;;;;5063013;28;20053;-75
2024/01/01 13:39:57;;;;;;;10.63;1.77;;;;;;;;;;5062937;28;20051;-75
2024/01/01 13:42:22;;;;;;;10.45;2.03;;;;;;;;;;5063866;28;20574;-75
2024/01/01 13:44:48;;;;;;;10.35;2.25;;;;;;;;;;5061349;28;20036;-75
2024/01/01 13:47:13;;;;;;;9.85;2.42;;;;;;;;;;5062679;28;20105;-74
2024/01/01 13:49:39;;;;;;;12.23;1.73;;;;;;;;;;5039683;28;20095;-74
2024/01/01 13:52:04;;;;;;;10.10;1.85;;;;;;;;;;5056534;28;20040;-74
2024/01/01 13:54:30;;;;;;;10.13;2.00;;;;;;;;;;5063327;28;20531;-74
2024/01/01 13:56:55;;;;;;;11.82;1.70;;;;;;;;;;5062261;28;20016;-74
2024/01/01 13:59:21;;;;;;;9.23;1.52;;;;;;;;;;5063066;28;20047;-75
2024/01/01 14:01:46;;;;;;;8.82;2.00;;;;;;;;;;5061970;28;20036;-74
2024/01/01 14:04:11;;;;;;;14.82;1.83;;;;;;;;;;5061523;28;20048;-74
2024/01/01 14:06:37;;;;;;;12.75;2.50;;;;;;;;;;5063351;28;20372;-74
2024/01/01 14:09:05;;;;;;;8.95;1.80;;;;;;;;;;5062958;28;20047;-74
2024/01/01 14:11:35;;;;;;;10.25;1.80;;;;;;;;;;5063462;28;20109;-74
2024/01/01 14:14:00;;;;;;;12.02;1.90;;;;;;;;;;5067456;28;20038;-74
2024/01/01 14:16:25;;;;;;;11.30;2.28;;;;;;;;;;5068726;28;20670;-73
2024/01/01 14:18:51;;;;;;;15.25;2.08;;;;;;;;;;5059657;28;20497;-73
2024/01/01 14:21:16;;;;;;;13.32;1.60;;;;;;;;;;5059101;28;20033;-74
2024/01/01 14:23:41;;;;;;;12.93;2.00;;;;;;;;;;5057104;28;20097;-74
2024/01/01 14:26:07;;;;;;;13.85;2.25;;;;;;;;;;5057966;28;20075;-74
2024/01/01 14:28:32;;;;;;;10.50;2.42;;;;;;;;;;5056373;28;20749;-74
2024/01/01 14:30:58;;;;;;;8.63;1.40;;;;;;;;;;5045819;28;20036;-74
2024/01/01 14:33:23;;;;;;;9.85;2.28;;;;;;;;;;5043991;28;20059;-74